Kinnelon, New Jersey
Current Conditions -  °F | °C
As of 7:53 AM on Tuesday 21 Oct 2014 (Local Time) from KCDW Reporting Station
Overcast Overcast  
Wind Chill: 50°   Ceiling: 7500
Heat Index: 50°   Visibility: 10mi
Dew Point: 43°   Wind: 7mph
Humidity: 77%   Direction: 70°ENE
Pressure: 29.89"   Gusts: NA
Location:  40.9863°N, 74.383°W
Report Text: KCDW 211153Z 07006KT 10SM FEW049 BKN075 OVC090 10/06 A2989 RMK AO2 SLP127 T01000061 10100 20078 56007
Loading
Personal Weather Stations






























Interactive Weather Map
Tropical Storm Tracking
New forecast layout! Learn more

10-Day Weather Forecast

Advertisements
Track Severe Weather on mobile